Hengch'un, Taiwan
Current Conditions -  °F | °C
As of 12:04 PM on Sunday 21 Dec 2014 (Local Time) from RCKH Reporting Station
Haze Haze  
Wind Chill: 73°   Ceiling: 9000
Heat Index: 73°   Visibility: 3mi
Dew Point: 57°   Wind: 9mph
Humidity: 57%   Direction: 300°WNW
Pressure: 30.12"   Gusts: NA
Location:  22°N, 120.75°E
Report Text: RCKH 210404Z 30008KT 260V010 5000 HZ FEW016 SCT060 BKN09023/14 Q1020 NOSIG RMK 34011KT/R09 A3014
Loading
Personal Weather Stations






























Interactive Weather Map New forecast layout! Learn more

10-Day Weather Forecast

Advertisements
Track Severe Weather on mobile